createdAt,value
2023-04-24T00:00:24.644Z,100189.59
2023-04-24T00:02:52.250Z,100195.56
2023-04-24T00:05:20.934Z,100193.28
2023-04-24T00:07:48.118Z,100194.63
2023-04-24T00:10:15.672Z,100202.19
2023-04-24T00:12:42.877Z,100205.44
2023-04-24T00:15:10.609Z,100208.31
2023-04-24T00:17:38.300Z,100209.75
2023-04-24T00:20:07.874Z,100209.44
2023-04-24T00:22:35.198Z,100211.75
2023-04-24T00:25:02.499Z,100216.41
2023-04-24T00:27:29.782Z,100216.41
2023-04-24T00:29:57.274Z,100218.38
2023-04-24T00:32:24.750Z,100225.75
2023-04-24T00:34:51.947Z,100228.31
2023-04-24T00:37:19.132Z,100229.09
2023-04-24T00:39:46.393Z,100215.75
2023-04-24T00:42:13.659Z,100238.75
2023-04-24T00:44:41.050Z,100230.41
2023-04-24T00:47:08.485Z,100237.22
2023-04-24T00:49:36.467Z,100246.22
2023-04-24T00:52:08.539Z,100240.84
2023-04-24T00:54:36.519Z,100248.09
2023-04-24T00:57:04.204Z,100250.94
2023-04-24T00:59:31.873Z,100258.00
2023-04-24T01:01:59.443Z,100256.44
2023-04-24T01:04:27.324Z,100257.50
2023-04-24T01:06:56.340Z,100254.75
2023-04-24T01:09:24.721Z,100254.53
2023-04-24T01:11:52.215Z,100247.22
2023-04-24T01:14:19.533Z,100251.50
2023-04-24T01:16:47.600Z,100253.75
2023-04-24T01:19:16.493Z,100245.66
2023-04-24T01:21:44.283Z,100243.28
2023-04-24T01:24:11.784Z,100249.47
2023-04-24T01:26:39.398Z,100238.63
2023-04-24T01:29:06.896Z,100244.63
2023-04-24T01:31:35.563Z,100250.41
2023-04-24T01:34:03.694Z,100257.53
2023-04-24T01:36:32.632Z,100260.03
2023-04-24T01:38:59.944Z,100253.38
2023-04-24T01:41:27.587Z,100263.50
2023-04-24T01:43:55.033Z,100254.28
2023-04-24T01:46:23.671Z,100269.91
2023-04-24T01:48:52.231Z,100268.88
2023-04-24T01:51:20.708Z,100269.09
2023-04-24T01:53:48.009Z,100267.31
2023-04-24T01:56:15.328Z,100276.75
2023-04-24T01:58:42.810Z,100278.66
2023-04-24T02:01:10.246Z,100273.50
2023-04-24T02:03:37.778Z,100285.69
2023-04-24T02:06:05.338Z,100275.38
2023-04-24T02:08:32.692Z,100274.50
2023-04-24T02:10:59.871Z,100280.25
2023-04-24T02:13:27.127Z,100278.69
2023-04-24T02:15:54.313Z,100285.41
2023-04-24T02:18:21.687Z,100293.56
2023-04-24T02:20:48.933Z,100290.09
2023-04-24T02:23:16.230Z,100288.72
2023-04-24T02:25:43.512Z,100292.63
2023-04-24T02:28:10.806Z,100294.88
2023-04-24T02:30:38.005Z,100294.75
2023-04-24T02:33:05.474Z,100295.69
2023-04-24T02:35:32.933Z,100307.22
2023-04-24T02:38:00.418Z,100298.44
2023-04-24T02:40:27.652Z,100296.75
2023-04-24T02:42:54.894Z,100299.97
2023-04-24T02:45:22.204Z,100291.75
2023-04-24T02:47:49.523Z,100288.16
2023-04-24T02:50:16.791Z,100297.34
2023-04-24T02:52:44.247Z,100301.38
2023-04-24T02:55:11.592Z,100315.03
2023-04-24T02:57:38.964Z,100317.25
2023-04-24T03:00:08.221Z,100319.97
2023-04-24T03:02:35.732Z,100324.69
2023-04-24T03:05:03.457Z,100321.31
2023-04-24T03:07:30.750Z,100323.50
2023-04-24T03:10:00.431Z,100327.75
2023-04-24T03:12:27.674Z,100328.41
2023-04-24T03:14:54.866Z,100325.41
2023-04-24T03:17:22.214Z,100328.25
2023-04-24T03:19:49.629Z,100325.91
2023-04-24T03:22:17.079Z,100318.94
2023-04-24T03:24:44.298Z,100321.53
2023-04-24T03:27:11.826Z,100327.50
2023-04-24T03:29:56.623Z,100333.00
2023-04-24T03:32:30.334Z,100331.44
2023-04-24T03:34:57.622Z,100327.75
2023-04-24T03:37:25.109Z,100323.19
2023-04-24T03:40:03.387Z,100322.97
2023-04-24T03:42:30.924Z,100331.53
2023-04-24T03:44:58.162Z,100329.72
2023-04-24T03:47:31.059Z,100330.41
2023-04-24T03:50:01.908Z,100333.19
2023-04-24T03:52:29.624Z,100346.13
2023-04-24T03:54:56.950Z,100336.50
2023-04-24T03:57:25.875Z,100338.53
2023-04-24T04:00:22.600Z,100353.31
2023-04-24T04:03:02.383Z,100364.91
2023-04-24T04:05:30.535Z,100365.06
2023-04-24T04:07:57.991Z,100372.16
2023-04-24T04:10:25.456Z,100359.50
2023-04-24T04:12:52.642Z,100375.69
2023-04-24T04:15:20.021Z,100375.16
2023-04-24T04:17:47.962Z,100381.53
2023-04-24T04:20:15.213Z,100373.66
2023-04-24T04:22:44.492Z,100365.88
2023-04-24T04:25:15.958Z,100372.66
2023-04-24T04:27:44.134Z,100379.41
2023-04-24T04:30:13.820Z,100390.84
2023-04-24T04:32:51.218Z,100392.81
2023-04-24T04:35:18.781Z,100397.34
2023-04-24T04:37:46.808Z,100405.41
2023-04-24T04:40:28.183Z,100402.81
2023-04-24T04:43:01.482Z,100395.28
2023-04-24T04:45:35.522Z,100409.91
2023-04-24T04:48:21.528Z,100417.75
2023-04-24T04:50:48.863Z,100413.13
2023-04-24T04:53:16.282Z,100401.34
2023-04-24T04:55:43.702Z,100423.44
2023-04-24T04:58:15.067Z,100415.75
2023-04-24T05:00:42.520Z,100418.72
2023-04-24T05:03:21.199Z,100423.56
2023-04-24T05:05:54.863Z,100429.06
2023-04-24T05:10:52.592Z,100432.88
2023-04-24T05:13:28.306Z,100446.22
2023-04-24T05:16:06.897Z,100450.16
2023-04-24T05:18:35.337Z,100451.63
2023-04-24T05:21:03.006Z,100462.25
2023-04-24T05:23:30.378Z,100461.16
2023-04-24T05:25:58.676Z,100484.41
2023-04-24T05:28:29.358Z,100479.25
2023-04-24T05:31:05.717Z,100479.69
2023-04-24T05:33:33.141Z,100483.88
2023-04-24T05:36:00.563Z,100491.16
2023-04-24T05:38:28.417Z,100500.56
2023-04-24T05:40:55.830Z,100492.06
2023-04-24T05:43:23.109Z,100504.28
2023-04-24T05:45:50.835Z,100506.44
2023-04-24T05:48:19.162Z,100513.94
2023-04-24T05:50:48.294Z,100521.03
2023-04-24T05:53:15.666Z,100521.13
2023-04-24T05:55:43.044Z,100521.84
2023-04-24T05:58:10.477Z,100531.38
2023-04-24T06:00:40.235Z,100524.28
2023-04-24T06:03:10.221Z,100525.38
2023-04-24T06:05:38.287Z,100536.09
2023-04-24T06:08:05.732Z,100542.47
2023-04-24T06:10:37.065Z,100550.66
2023-04-24T06:13:05.592Z,100547.78
2023-04-24T06:15:34.493Z,100549.84
2023-04-24T06:18:08.593Z,100558.16
2023-04-24T06:20:37.248Z,100557.53
2023-04-24T06:23:04.654Z,100556.81
2023-04-24T06:25:34.219Z,100558.66
2023-04-24T06:28:02.622Z,100565.41
2023-04-24T06:30:31.416Z,100570.41
2023-04-24T06:33:03.102Z,100573.34
2023-04-24T06:35:39.293Z,100578.78
2023-04-24T06:38:07.002Z,100578.78
2023-04-24T06:40:34.552Z,100577.72
2023-04-24T06:43:03.778Z,100584.56
2023-04-24T06:45:31.170Z,100573.28
2023-04-24T06:47:58.557Z,100587.78
2023-04-24T06:50:26.139Z,100573.66
2023-04-24T06:52:53.684Z,100579.19
2023-04-24T06:55:20.934Z,100583.41
2023-04-24T06:57:48.231Z,100576.56
2023-04-24T07:00:17.089Z,100581.03
2023-04-24T07:02:45.059Z,100578.47
2023-04-24T07:05:13.772Z,100579.06
2023-04-24T07:07:41.281Z,100579.41
2023-04-24T07:10:09.588Z,100589.56
2023-04-24T07:12:37.081Z,100594.91
2023-04-24T07:15:06.444Z,100594.47
2023-04-24T07:17:33.661Z,100595.03
2023-04-24T07:20:01.031Z,100586.56
2023-04-24T07:22:28.306Z,100591.38
2023-04-24T07:24:55.820Z,100588.16
2023-04-24T07:27:23.123Z,100595.16
2023-04-24T07:29:51.694Z,100588.56
2023-04-24T07:32:19.209Z,100588.59
2023-04-24T07:34:46.927Z,100594.25
2023-04-24T07:37:14.277Z,100602.28
2023-04-24T07:39:42.448Z,100608.84
2023-04-24T07:42:10.047Z,100594.97
2023-04-24T07:44:37.552Z,100601.22
2023-04-24T07:47:04.849Z,100605.75
2023-04-24T07:49:32.199Z,100615.47
2023-04-24T07:52:01.459Z,100609.00
2023-04-24T07:54:29.623Z,100607.13
2023-04-24T07:56:56.990Z,100607.91
2023-04-24T07:59:24.263Z,100613.25
2023-04-24T08:01:51.704Z,100622.03
2023-04-24T08:04:19.552Z,100622.19
2023-04-24T08:06:48.635Z,100623.09
2023-04-24T08:09:16.112Z,100629.94
2023-04-24T08:11:43.391Z,100629.31
2023-04-24T08:14:10.808Z,100629.03
2023-04-24T08:16:38.221Z,100631.16
2023-04-24T08:19:05.474Z,100639.28
2023-04-24T08:21:35.877Z,100630.84
2023-04-24T08:24:06.189Z,100643.03
2023-04-24T08:26:33.487Z,100631.81
2023-04-24T08:29:00.780Z,100636.03
2023-04-24T08:31:28.126Z,100636.97
2023-04-24T08:33:55.440Z,100634.72
2023-04-24T08:36:23.817Z,100637.09
2023-04-24T08:38:54.095Z,100628.94
2023-04-24T08:41:22.299Z,100644.50
2023-04-24T08:43:50.871Z,100641.16
2023-04-24T08:46:20.092Z,100649.38
2023-04-24T08:48:47.891Z,100650.31
2023-04-24T08:51:15.253Z,100642.94
2023-04-24T08:53:42.664Z,100646.78
2023-04-24T08:56:10.316Z,100639.84
2023-04-24T08:58:38.201Z,100646.28
2023-04-24T09:01:05.919Z,100635.53
2023-04-24T09:03:34.651Z,100642.16
2023-04-24T09:06:02.334Z,100630.06
2023-04-24T09:08:30.869Z,100648.88
2023-04-24T09:10:59.568Z,100653.72
2023-04-24T09:13:27.605Z,100653.22
2023-04-24T09:15:55.329Z,100655.25
2023-04-24T09:18:22.758Z,100657.00
2023-04-24T09:21:09.388Z,100654.41
2023-04-24T09:23:36.938Z,100661.22
2023-04-24T09:26:07.610Z,100662.06
2023-04-24T09:28:40.558Z,100657.34
2023-04-24T09:31:16.903Z,100668.47
2023-04-24T09:33:58.446Z,100660.69
2023-04-24T09:36:42.097Z,100672.28
2023-04-24T09:39:14.769Z,100658.53
2023-04-24T09:41:52.626Z,100660.97
2023-04-24T09:44:24.267Z,100671.78
2023-04-24T09:46:56.111Z,100669.50
2023-04-24T09:49:25.768Z,100673.38
2023-04-24T09:51:54.065Z,100679.41
2023-04-24T09:54:22.771Z,100673.63
2023-04-24T09:56:51.710Z,100673.81
2023-04-24T09:59:20.420Z,100674.16
2023-04-24T10:01:49.668Z,100676.53
2023-04-24T10:04:25.485Z,100676.53
2023-04-24T10:06:54.756Z,100672.41
2023-04-24T10:09:27.404Z,100668.00
2023-04-24T10:11:55.983Z,100672.13
2023-04-24T10:14:25.148Z,100670.72
2023-04-24T10:16:55.158Z,100673.56
2023-04-24T10:19:24.046Z,100669.28
2023-04-24T10:21:51.302Z,100669.56
2023-04-24T10:24:21.582Z,100679.25
2023-04-24T10:26:49.442Z,100671.41
2023-04-24T10:29:20.096Z,100666.88
2023-04-24T10:31:48.015Z,100678.00
2023-04-24T10:34:17.506Z,100670.53
2023-04-24T10:36:50.955Z,100668.94
2023-04-24T10:39:18.787Z,100675.94
2023-04-24T10:41:47.466Z,100672.81
2023-04-24T10:44:16.761Z,100673.72
2023-04-24T10:46:46.482Z,100672.84
2023-04-24T10:49:13.918Z,100665.66
2023-04-24T10:51:49.092Z,100671.16
2023-04-24T10:54:30.926Z,100672.72
2023-04-24T10:57:23.325Z,100662.94
2023-04-24T10:59:52.086Z,100666.44
2023-04-24T11:02:19.721Z,100662.28
2023-04-24T11:04:47.444Z,100663.72
2023-04-24T11:07:14.898Z,100663.25
2023-04-24T11:09:44.260Z,100664.50
2023-04-24T11:12:14.954Z,100671.56
2023-04-24T11:15:11.726Z,100664.16
2023-04-24T11:17:40.925Z,100662.09
2023-04-24T11:20:25.590Z,100659.84
2023-04-24T11:22:56.287Z,100666.66
2023-04-24T11:25:24.069Z,100663.44
2023-04-24T11:27:51.562Z,100654.19
2023-04-24T11:30:20.686Z,100647.03
2023-04-24T11:32:54.205Z,100650.41
2023-04-24T11:35:26.039Z,100639.81
2023-04-24T11:40:25.942Z,100650.69
2023-04-24T11:42:56.427Z,100650.78
2023-04-24T11:45:28.322Z,100644.56
2023-04-24T11:47:55.746Z,100634.16
2023-04-24T11:50:24.570Z,100641.38
2023-04-24T11:52:52.057Z,100638.81
2023-04-24T11:55:19.814Z,100638.00
2023-04-24T11:57:51.458Z,100636.56
2023-04-24T12:00:23.775Z,100638.50
2023-04-24T12:02:51.711Z,100638.94
2023-04-24T12:05:28.101Z,100642.25
2023-04-24T12:07:55.849Z,100635.72
2023-04-24T12:10:24.686Z,100637.13
2023-04-24T12:12:52.766Z,100631.31
2023-04-24T12:15:21.838Z,100629.47
2023-04-24T12:17:49.450Z,100624.78
2023-04-24T12:20:19.447Z,100629.06
2023-04-24T12:22:55.886Z,100630.41
2023-04-24T12:25:28.123Z,100627.97
2023-04-24T12:27:56.403Z,100628.75
2023-04-24T12:30:29.446Z,100630.22
2023-04-24T12:32:59.148Z,100629.25
2023-04-24T12:35:28.857Z,100625.69
2023-04-24T12:37:56.332Z,100631.19
2023-04-24T12:40:26.426Z,100630.13
2023-04-24T12:42:54.397Z,100634.97
2023-04-24T12:45:24.981Z,100633.91
2023-04-24T12:47:52.319Z,100636.56
2023-04-24T12:50:19.919Z,100644.19
2023-04-24T12:52:47.422Z,100621.69
2023-04-24T12:55:14.790Z,100629.56
2023-04-24T12:57:42.205Z,100629.59
2023-04-24T13:00:10.134Z,100624.56
2023-04-24T13:02:37.803Z,100623.63
2023-04-24T13:05:05.620Z,100624.66
2023-04-24T13:07:32.825Z,100613.06
2023-04-24T13:10:00.156Z,100614.25
2023-04-24T13:12:27.647Z,100617.50
2023-04-24T13:14:55.107Z,100619.94
2023-04-24T13:17:22.874Z,100618.22
2023-04-24T13:19:51.247Z,100615.91
2023-04-24T13:22:21.811Z,100616.34
2023-04-24T13:24:50.085Z,100630.69
2023-04-24T13:27:17.801Z,100618.25
2023-04-24T13:29:45.074Z,100613.53
2023-04-24T13:32:12.682Z,100623.50
2023-04-24T13:34:40.053Z,100626.75
2023-04-24T13:37:09.052Z,100618.31
2023-04-24T13:39:36.708Z,100617.75
2023-04-24T13:42:05.054Z,100619.41
2023-04-24T13:44:32.701Z,100621.22
2023-04-24T13:47:00.051Z,100619.59
2023-04-24T13:49:28.180Z,100628.88
2023-04-24T13:51:56.755Z,100626.75
2023-04-24T13:54:27.337Z,100622.94
2023-04-24T13:56:54.731Z,100616.63
2023-04-24T13:59:24.768Z,100617.25
2023-04-24T14:01:52.155Z,100610.19
2023-04-24T14:04:19.627Z,100610.13
2023-04-24T14:06:47.037Z,100605.84
2023-04-24T14:09:14.393Z,100605.47
2023-04-24T14:11:41.953Z,100600.69
2023-04-24T14:14:09.277Z,100603.97
2023-04-24T14:16:36.864Z,100601.13
2023-04-24T14:19:04.168Z,100596.97
2023-04-24T14:21:31.730Z,100596.13
2023-04-24T14:23:59.011Z,100592.59
2023-04-24T14:26:26.296Z,100592.16
2023-04-24T14:29:01.105Z,100606.06
2023-04-24T14:31:34.865Z,100607.00
2023-04-24T14:34:02.165Z,100598.31
2023-04-24T14:36:29.480Z,100593.00
2023-04-24T14:38:56.813Z,100587.31
2023-04-24T14:41:24.084Z,100579.84
2023-04-24T14:43:51.507Z,100576.22
2023-04-24T14:46:19.192Z,100576.16
2023-04-24T14:48:46.727Z,100580.56
2023-04-24T14:51:13.967Z,100582.16
2023-04-24T14:53:41.688Z,100572.75
2023-04-24T14:56:09.056Z,100584.09
2023-04-24T14:58:36.435Z,100578.75
2023-04-24T15:01:03.744Z,100586.28
2023-04-24T15:03:32.228Z,100576.47
2023-04-24T15:05:59.797Z,100582.47
2023-04-24T15:08:27.004Z,100594.91
2023-04-24T15:10:54.447Z,100606.75
2023-04-24T15:13:21.757Z,100616.56
2023-04-24T15:15:48.986Z,100614.94
2023-04-24T15:18:16.275Z,100624.84
2023-04-24T15:20:43.737Z,100608.72
2023-04-24T15:23:11.307Z,100613.16
2023-04-24T15:25:39.225Z,100607.63
2023-04-24T15:28:06.984Z,100606.16
2023-04-24T15:30:34.561Z,100592.03
2023-04-24T15:33:02.859Z,100578.19
2023-04-24T15:35:30.213Z,100583.19
2023-04-24T15:37:57.678Z,100579.00
2023-04-24T15:40:25.033Z,100587.56
2023-04-24T15:42:52.355Z,100577.03
2023-04-24T15:45:19.788Z,100571.94
2023-04-24T15:47:47.655Z,100574.50
2023-04-24T15:50:17.070Z,100568.47
2023-04-24T15:52:44.574Z,100568.59
2023-04-24T15:55:12.404Z,100561.19
2023-04-24T15:57:40.478Z,100564.88
2023-04-24T16:00:09.751Z,100558.41
2023-04-24T16:02:40.396Z,100554.16
2023-04-24T16:05:08.742Z,100566.41
2023-04-24T16:07:37.644Z,100560.50
2023-04-24T16:10:05.447Z,100572.31
2023-04-24T16:12:32.746Z,100577.63
2023-04-24T16:15:00.148Z,100562.25
2023-04-24T16:17:27.412Z,100565.97
2023-04-24T16:19:54.683Z,100563.03
2023-04-24T16:22:22.222Z,100558.66
2023-04-24T16:24:49.533Z,100560.13
2023-04-24T16:27:16.831Z,100560.63
2023-04-24T16:29:44.344Z,100571.94
2023-04-24T16:32:11.614Z,100579.53
2023-04-24T16:34:38.870Z,100570.28
2023-04-24T16:37:06.800Z,100571.44
2023-04-24T16:39:35.000Z,100571.78
2023-04-24T16:42:02.540Z,100570.34
2023-04-24T16:44:29.831Z,100582.44
2023-04-24T16:46:57.430Z,100571.91
2023-04-24T16:49:24.923Z,100572.00
2023-04-24T16:51:52.048Z,100578.53
2023-04-24T16:54:21.348Z,100580.59
2023-04-24T16:56:49.196Z,100584.81
2023-04-24T16:59:16.443Z,100588.81
2023-04-24T17:01:43.638Z,100586.53
2023-04-24T17:04:11.306Z,100590.53
2023-04-24T17:06:38.589Z,100591.41
2023-04-24T17:09:05.971Z,100586.25
2023-04-24T17:11:33.173Z,100580.56
2023-04-24T17:14:00.823Z,100579.88
2023-04-24T17:16:29.001Z,100575.69
2023-04-24T17:18:56.317Z,100576.63
2023-04-24T17:21:23.697Z,100579.63
2023-04-24T17:23:51.116Z,100583.34
2023-04-24T17:26:18.406Z,100572.94
2023-04-24T17:28:46.174Z,100571.34
2023-04-24T17:31:13.747Z,100568.22
2023-04-24T17:33:41.254Z,100554.06
2023-04-24T17:36:08.649Z,100568.38
2023-04-24T17:38:36.532Z,100560.84
2023-04-24T17:41:03.885Z,100551.41
2023-04-24T17:43:31.201Z,100559.47
2023-04-24T17:46:01.926Z,100557.72
2023-04-24T17:48:29.372Z,100557.06
2023-04-24T17:50:56.914Z,100557.41
2023-04-24T17:53:24.256Z,100555.94
2023-04-24T17:55:51.564Z,100561.03
2023-04-24T17:58:19.378Z,100551.56
2023-04-24T18:00:46.971Z,100550.34
2023-04-24T18:03:14.458Z,100554.72
2023-04-24T18:05:41.888Z,100553.00
2023-04-24T18:08:09.198Z,100550.56
2023-04-24T18:10:36.686Z,100549.16
2023-04-24T18:13:05.232Z,100550.22
2023-04-24T18:15:33.085Z,100544.22
2023-04-24T18:18:00.447Z,100548.50
2023-04-24T18:20:27.770Z,100552.50
2023-04-24T18:25:27.023Z,100547.06
2023-04-24T18:27:55.893Z,100551.19
2023-04-24T18:30:24.480Z,100550.97
2023-04-24T18:32:53.377Z,100560.13
2023-04-24T18:35:21.713Z,100557.19
2023-04-24T18:37:49.869Z,100563.19
2023-04-24T18:40:17.619Z,100569.19
2023-04-24T18:42:45.055Z,100565.78
2023-04-24T18:45:14.858Z,100561.34
2023-04-24T18:47:43.268Z,100560.59
2023-04-24T18:50:11.174Z,100570.50
2023-04-24T18:52:38.643Z,100564.19
2023-04-24T18:55:07.082Z,100568.09
2023-04-24T18:57:34.627Z,100570.44
2023-04-24T19:00:02.101Z,100573.22
2023-04-24T19:02:29.628Z,100575.63
2023-04-24T19:04:57.009Z,100574.72
2023-04-24T19:07:24.440Z,100580.06
2023-04-24T19:09:51.879Z,100576.84
2023-04-24T19:12:20.966Z,100589.88
2023-04-24T19:14:49.608Z,100586.44
2023-04-24T19:17:23.308Z,100584.44
2023-04-24T19:19:51.246Z,100589.06
2023-04-24T19:22:20.454Z,100593.59
2023-04-24T19:24:47.870Z,100594.13
2023-04-24T19:27:15.359Z,100602.91
2023-04-24T19:29:42.962Z,100606.81
2023-04-24T19:32:10.386Z,100602.88
2023-04-24T19:34:39.729Z,100592.00
2023-04-24T19:37:08.072Z,100597.97
2023-04-24T19:39:35.280Z,100605.63
2023-04-24T19:42:07.105Z,100612.75
2023-04-24T19:44:35.037Z,100614.94
2023-04-24T19:47:02.298Z,100620.63
2023-04-24T19:49:29.638Z,100621.59
2023-04-24T19:51:56.970Z,100633.75
2023-04-24T19:54:24.714Z,100628.25
2023-04-24T19:56:52.062Z,100646.44
2023-04-24T19:59:19.504Z,100656.63
2023-04-24T20:01:47.177Z,100652.09
2023-04-24T20:04:14.553Z,100666.25
2023-04-24T20:06:41.873Z,100666.25
2023-04-24T20:09:09.966Z,100663.63
2023-04-24T20:11:37.302Z,100667.69
2023-04-24T20:14:04.775Z,100663.50
2023-04-24T20:16:32.226Z,100662.66
2023-04-24T20:18:59.676Z,100663.28
2023-04-24T20:21:26.915Z,100663.66
2023-04-24T20:23:54.226Z,100666.22
2023-04-24T20:26:21.616Z,100671.63
2023-04-24T20:28:49.216Z,100664.13
2023-04-24T20:31:16.921Z,100676.25
2023-04-24T20:33:45.584Z,100673.41
2023-04-24T20:36:12.936Z,100664.34
2023-04-24T20:38:40.171Z,100669.25
2023-04-24T20:41:08.887Z,100661.09
2023-04-24T20:43:36.545Z,100640.00
2023-04-24T20:46:03.882Z,100622.34
2023-04-24T20:48:31.491Z,100614.50
2023-04-24T20:50:59.012Z,100608.03
2023-04-24T20:53:26.320Z,100610.97
2023-04-24T20:55:53.614Z,100606.13
2023-04-24T20:58:22.064Z,100604.97
2023-04-24T21:00:50.127Z,100600.66
2023-04-24T21:03:18.918Z,100607.28
2023-04-24T21:05:46.398Z,100606.34
2023-04-24T21:08:13.904Z,100604.34
2023-04-24T21:10:41.211Z,100603.66
2023-04-24T21:13:08.900Z,100600.31
2023-04-24T21:15:36.282Z,100602.41
2023-04-24T21:18:04.181Z,100604.84
2023-04-24T21:20:32.019Z,100600.00
2023-04-24T21:22:59.243Z,100605.63
2023-04-24T21:25:26.806Z,100607.44
2023-04-24T21:27:54.337Z,100613.63
2023-04-24T21:30:22.136Z,100612.72
2023-04-24T21:32:49.464Z,100624.75
2023-04-24T21:35:16.821Z,100635.59
2023-04-24T21:37:44.294Z,100630.16
2023-04-24T21:40:11.750Z,100632.00
2023-04-24T21:42:39.610Z,100626.88
2023-04-24T21:45:07.381Z,100631.06
2023-04-24T21:47:34.726Z,100622.63
2023-04-24T21:50:02.207Z,100625.88
2023-04-24T21:52:29.447Z,100634.91
2023-04-24T21:54:56.863Z,100633.84
2023-04-24T21:57:24.165Z,100625.66
2023-04-24T21:59:51.736Z,100631.56
2023-04-24T22:02:19.160Z,100614.66
2023-04-24T22:04:46.887Z,100617.06
2023-04-24T22:07:14.977Z,100621.41
2023-04-24T22:09:42.273Z,100623.88
2023-04-24T22:12:09.924Z,100628.97
2023-04-24T22:14:37.244Z,100643.56
2023-04-24T22:17:04.902Z,100643.00
2023-04-24T22:19:32.218Z,100646.69
2023-04-24T22:21:59.518Z,100637.91
2023-04-24T22:24:26.921Z,100637.22
2023-04-24T22:26:54.159Z,100631.00
2023-04-24T22:29:21.562Z,100627.84
2023-04-24T22:31:49.284Z,100637.59
2023-04-24T22:34:17.128Z,100645.03
2023-04-24T22:36:44.422Z,100647.25
2023-04-24T22:39:15.673Z,100643.06
2023-04-24T22:41:43.247Z,100654.94
2023-04-24T22:44:11.044Z,100643.81
2023-04-24T22:46:38.414Z,100657.59
2023-04-24T22:49:05.752Z,100668.94
2023-04-24T22:51:35.795Z,100650.91
2023-04-24T22:54:03.824Z,100640.41
2023-04-24T22:56:32.201Z,100635.63
2023-04-24T22:58:59.937Z,100639.69
2023-04-24T23:01:27.385Z,100634.91
2023-04-24T23:03:55.100Z,100633.53
2023-04-24T23:06:22.504Z,100640.25
2023-04-24T23:08:49.784Z,100634.84
2023-04-24T23:11:17.385Z,100636.59
2023-04-24T23:13:44.684Z,100627.94
2023-04-24T23:16:11.909Z,100625.78
2023-04-24T23:18:39.333Z,100632.16
2023-04-24T23:21:06.715Z,100635.31
2023-04-24T23:23:34.045Z,100642.09
2023-04-24T23:26:01.459Z,100640.00
2023-04-24T23:28:28.671Z,100633.47
2023-04-24T23:30:56.163Z,100641.59
2023-04-24T23:33:23.516Z,100651.72
2023-04-24T23:35:51.218Z,100647.41
2023-04-24T23:38:18.457Z,100649.22
2023-04-24T23:40:45.872Z,100646.72
2023-04-24T23:43:13.164Z,100654.25
2023-04-24T23:45:40.560Z,100648.00
2023-04-24T23:48:07.967Z,100648.97
2023-04-24T23:50:35.394Z,100646.72
2023-04-24T23:53:02.705Z,100647.41
2023-04-24T23:55:30.009Z,100653.19
2023-04-24T23:57:57.423Z,100653.38
